sensor_id;sensor_type;location;lat;lon;timestamp;pressure;altitude;pressure_sealevel;temperature;humidity
29907;BME280;16776;50.958;10.994;2023-01-10T00:02:02;97868.63;;;3.47;100.00
29907;BME280;16776;50.958;10.994;2023-01-10T00:04:28;97862.69;;;3.46;100.00
29907;BME280;16776;50.958;10.994;2023-01-10T00:06:55;97854.34;;;3.33;100.00
29907;BME280;16776;50.958;10.994;2023-01-10T00:09:22;97874.63;;;3.42;100.00
29907;BME280;16776;50.958;10.994;2023-01-10T00:11:48;97870.38;;;3.41;100.00
29907;BME280;16776;50.958;10.994;2023-01-10T00:14:32;97881.44;;;3.39;100.00
29907;BME280;16776;50.958;10.994;2023-01-10T00:17:01;97882.25;;;3.41;100.00
29907;BME280;16776;50.958;10.994;2023-01-10T00:19:27;97878.03;;;3.40;100.00
29907;BME280;16776;50.958;10.994;2023-01-10T00:21:54;97890.75;;;3.40;100.00
29907;BME280;16776;50.958;10.994;2023-01-10T00:24:27;97895.00;;;3.41;100.00
29907;BME280;16776;50.958;10.994;2023-01-10T00:26:53;97896.69;;;3.42;100.00
29907;BME280;16776;50.958;10.994;2023-01-10T00:29:22;97901.72;;;3.45;100.00
29907;BME280;16776;50.958;10.994;2023-01-10T00:31:50;97897.47;;;3.45;100.00
29907;BME280;16776;50.958;10.994;2023-01-10T00:34:18;97900.84;;;3.51;100.00
29907;BME280;16776;50.958;10.994;2023-01-10T00:36:46;97900.84;;;3.49;100.00
29907;BME280;16776;50.958;10.994;2023-01-10T00:39:13;97897.47;;;3.49;100.00
29907;BME280;16776;50.958;10.994;2023-01-10T00:41:40;97896.59;;;3.51;100.00
29907;BME280;16776;50.958;10.994;2023-01-10T00:44:24;97910.16;;;3.52;100.00
29907;BME280;16776;50.958;10.994;2023-01-10T00:46:51;97914.38;;;3.54;100.00
29907;BME280;16776;50.958;10.994;2023-01-10T00:49:19;97915.22;;;3.58;100.00
29907;BME280;16776;50.958;10.994;2023-01-10T00:51:46;97919.47;;;3.56;100.00
29907;BME280;16776;50.958;10.994;2023-01-10T00:54:13;97930.47;;;3.58;100.00
29907;BME280;16776;50.958;10.994;2023-01-10T00:56:40;97933.03;;;3.58;100.00
29907;BME280;16776;50.958;10.994;2023-01-10T00:59:06;97929.59;;;3.59;100.00
29907;BME280;16776;50.958;10.994;2023-01-10T01:01:33;97944.88;;;3.59;100.00
29907;BME280;16776;50.958;10.994;2023-01-10T01:04:03;97950.78;;;3.64;100.00
29907;BME280;16776;50.958;10.994;2023-01-10T01:06:31;97949.94;;;3.62;100.00
29907;BME280;16776;50.958;10.994;2023-01-10T01:08:57;97957.59;;;3.60;100.00
29907;BME280;16776;50.958;10.994;2023-01-10T01:11:24;97967.78;;;3.59;100.00
29907;BME280;16776;50.958;10.994;2023-01-10T01:13:51;97955.03;;;3.60;100.00
29907;BME280;16776;50.958;10.994;2023-01-10T01:16:17;97966.94;;;3.60;100.00
29907;BME280;16776;50.958;10.994;2023-01-10T01:18:45;97968.63;;;3.61;100.00
29907;BME280;16776;50.958;10.994;2023-01-10T01:21:12;97972.88;;;3.60;100.00
29907;BME280;16776;50.958;10.994;2023-01-10T01:23:40;97984.75;;;3.63;100.00
29907;BME280;16776;50.958;10.994;2023-01-10T01:26:07;97983.91;;;3.61;100.00
29907;BME280;16776;50.958;10.994;2023-01-10T01:28:35;97986.44;;;3.62;100.00
29907;BME280;16776;50.958;10.994;2023-01-10T01:31:05;97983.00;;;3.66;100.00
29907;BME280;16776;50.958;10.994;2023-01-10T01:33:32;97978.03;;;3.54;100.00
29907;BME280;16776;50.958;10.994;2023-01-10T01:35:59;97995.78;;;3.63;100.00
29907;BME280;16776;50.958;10.994;2023-01-10T01:38:25;98003.41;;;3.63;100.00
29907;BME280;16776;50.958;10.994;2023-01-10T01:40:53;98009.31;;;3.65;100.00
29907;BME280;16776;50.958;10.994;2023-01-10T01:43:22;98012.69;;;3.66;100.00
29907;BME280;16776;50.958;10.994;2023-01-10T01:45:52;98016.94;;;3.65;100.00
29907;BME280;16776;50.958;10.994;2023-01-10T01:48:32;98024.56;;;3.68;100.00
29907;BME280;16776;50.958;10.994;2023-01-10T01:51:06;98031.38;;;3.65;100.00
29907;BME280;16776;50.958;10.994;2023-01-10T01:53:39;98039.06;;;3.63;100.00
29907;BME280;16776;50.958;10.994;2023-01-10T01:56:12;98018.81;;;3.47;100.00
29907;BME280;16776;50.958;10.994;2023-01-10T01:58:46;98050.13;;;3.56;100.00
29907;BME280;16776;50.958;10.994;2023-01-10T02:01:15;98054.44;;;3.50;100.00
29907;BME280;16776;50.958;10.994;2023-01-10T02:03:44;98055.28;;;3.49;100.00
29907;BME280;16776;50.958;10.994;2023-01-10T02:06:14;98060.44;;;3.42;100.00
29907;BME280;16776;50.958;10.994;2023-01-10T02:08:44;98051.94;;;3.42;100.00
29907;BME280;16776;50.958;10.994;2023-01-10T02:11:18;98056.19;;;3.41;100.00
29907;BME280;16776;50.958;10.994;2023-01-10T02:13:46;98057.94;;;3.36;100.00
29907;BME280;16776;50.958;10.994;2023-01-10T02:16:15;98063.88;;;3.35;100.00
29907;BME280;16776;50.958;10.994;2023-01-10T02:18:45;98068.09;;;3.38;100.00
29907;BME280;16776;50.958;10.994;2023-01-10T02:21:21;98067.22;;;3.39;100.00
29907;BME280;16776;50.958;10.994;2023-01-10T02:24:30;98067.22;;;3.43;100.00
29907;BME280;16776;50.958;10.994;2023-01-10T02:27:21;98068.91;;;3.41;100.00
29907;BME280;16776;50.958;10.994;2023-01-10T02:32:49;98082.53;;;3.34;100.00
29907;BME280;16776;50.958;10.994;2023-01-10T02:35:41;98087.56;;;3.42;100.00
29907;BME280;16776;50.958;10.994;2023-01-10T02:38:16;98091.00;;;3.38;100.00
29907;BME280;16776;50.958;10.994;2023-01-10T02:40:51;98093.56;;;3.38;100.00
29907;BME280;16776;50.958;10.994;2023-01-10T02:43:24;98087.63;;;3.37;100.00
29907;BME280;16776;50.958;10.994;2023-01-10T02:45:56;98099.50;;;3.38;100.00
29907;BME280;16776;50.958;10.994;2023-01-10T02:48:25;98107.97;;;3.37;100.00
29907;BME280;16776;50.958;10.994;2023-01-10T02:50:56;98113.06;;;3.37;100.00
29907;BME280;16776;50.958;10.994;2023-01-10T02:53:29;98116.47;;;3.36;100.00
29907;BME280;16776;50.958;10.994;2023-01-10T03:02:41;98115.63;;;3.33;100.00
29907;BME280;16776;50.958;10.994;2023-01-10T03:05:18;98116.50;;;3.30;100.00
29907;BME280;16776;50.958;10.994;2023-01-10T03:07:54;98116.50;;;3.24;100.00
29907;BME280;16776;50.958;10.994;2023-01-10T03:10:27;98128.34;;;3.27;100.00
29907;BME280;16776;50.958;10.994;2023-01-10T03:13:00;98130.91;;;3.25;100.00
29907;BME280;16776;50.958;10.994;2023-01-10T03:15:31;98141.09;;;3.25;100.00
29907;BME280;16776;50.958;10.994;2023-01-10T03:18:01;98139.38;;;3.26;100.00
29907;BME280;16776;50.958;10.994;2023-01-10T03:20:33;98147.00;;;3.29;100.00
29907;BME280;16776;50.958;10.994;2023-01-10T03:23:05;98164.00;;;3.25;100.00
29907;BME280;16776;50.958;10.994;2023-01-10T03:25:35;98156.38;;;3.31;100.00
29907;BME280;16776;50.958;10.994;2023-01-10T03:28:04;98163.13;;;3.32;100.00
29907;BME280;16776;50.958;10.994;2023-01-10T03:30:40;98183.47;;;3.37;100.00
29907;BME280;16776;50.958;10.994;2023-01-10T03:33:08;98191.97;;;3.34;100.00
29907;BME280;16776;50.958;10.994;2023-01-10T03:35:44;98192.78;;;3.39;100.00
29907;BME280;16776;50.958;10.994;2023-01-10T03:38:20;98204.66;;;3.43;100.00
29907;BME280;16776;50.958;10.994;2023-01-10T03:40:56;98187.72;;;3.36;100.00
29907;BME280;16776;50.958;10.994;2023-01-10T03:43:31;98212.25;;;3.48;100.00
29907;BME280;16776;50.958;10.994;2023-01-10T03:46:23;98222.44;;;3.50;100.00
29907;BME280;16776;50.958;10.994;2023-01-10T03:48:52;98227.53;;;3.51;100.00
29907;BME280;16776;50.958;10.994;2023-01-10T03:51:23;98228.34;;;3.55;100.00
29907;BME280;16776;50.958;10.994;2023-01-10T03:53:51;98230.06;;;3.54;100.00
29907;BME280;16776;50.958;10.994;2023-01-10T03:56:19;98230.88;;;3.59;100.00
29907;BME280;16776;50.958;10.994;2023-01-10T03:58:46;98232.56;;;3.62;100.00
29907;BME280;16776;50.958;10.994;2023-01-10T04:01:13;98240.16;;;3.65;100.00
29907;BME280;16776;50.958;10.994;2023-01-10T04:03:39;98241.88;;;3.66;100.00
29907;BME280;16776;50.958;10.994;2023-01-10T04:06:06;98249.50;;;3.69;100.00
29907;BME280;16776;50.958;10.994;2023-01-10T04:08:34;98256.25;;;3.73;100.00
29907;BME280;16776;50.958;10.994;2023-01-10T04:11:01;98260.50;;;3.74;100.00
29907;BME280;16776;50.958;10.994;2023-01-10T04:13:31;98271.50;;;3.77;100.00
29907;BME280;16776;50.958;10.994;2023-01-10T04:15:58;98268.97;;;3.79;100.00
29907;BME280;16776;50.958;10.994;2023-01-10T04:18:25;98264.72;;;3.79;100.00
29907;BME280;16776;50.958;10.994;2023-01-10T04:20:52;98271.50;;;3.82;100.00
29907;BME280;16776;50.958;10.994;2023-01-10T04:23:18;98272.31;;;3.84;100.00
29907;BME280;16776;50.958;10.994;2023-01-10T04:25:46;98273.16;;;3.88;100.00
29907;BME280;16776;50.958;10.994;2023-01-10T04:28:13;98278.25;;;3.86;100.00
29907;BME280;16776;50.958;10.994;2023-01-10T04:30:40;98274.88;;;3.87;100.00
29907;BME280;16776;50.958;10.994;2023-01-10T04:33:09;98274.88;;;3.85;100.00
29907;BME280;16776;50.958;10.994;2023-01-10T04:35:36;98284.22;;;3.85;100.00
29907;BME280;16776;50.958;10.994;2023-01-10T04:38:06;98286.75;;;3.83;100.00
29907;BME280;16776;50.958;10.994;2023-01-10T04:40:32;98299.53;;;3.82;100.00
29907;BME280;16776;50.958;10.994;2023-01-10T04:43:00;98306.31;;;3.83;100.00
29907;BME280;16776;50.958;10.994;2023-01-10T04:45:27;98313.09;;;3.81;100.00
29907;BME280;16776;50.958;10.994;2023-01-10T04:47:53;98319.91;;;3.82;100.00
29907;BME280;16776;50.958;10.994;2023-01-10T04:50:21;98330.94;;;3.82;100.00
29907;BME280;16776;50.958;10.994;2023-01-10T04:52:50;98329.25;;;3.81;100.00
29907;BME280;16776;50.958;10.994;2023-01-10T04:55:16;98322.44;;;3.77;100.00
29907;BME280;16776;50.958;10.994;2023-01-10T04:57:43;98335.22;;;3.76;100.00
29907;BME280;16776;50.958;10.994;2023-01-10T05:00:12;98325.88;;;3.76;100.00
29907;BME280;16776;50.958;10.994;2023-01-10T05:02:40;98333.53;;;3.70;100.00
29907;BME280;16776;50.958;10.994;2023-01-10T05:05:09;98335.22;;;3.68;100.00
29907;BME280;16776;50.958;10.994;2023-01-10T05:07:35;98335.22;;;3.67;100.00
29907;BME280;16776;50.958;10.994;2023-01-10T05:10:03;98351.34;;;3.64;100.00
29907;BME280;16776;50.958;10.994;2023-01-10T05:12:29;98353.94;;;3.63;100.00
29907;BME280;16776;50.958;10.994;2023-01-10T05:14:56;98354.78;;;3.62;100.00
29907;BME280;16776;50.958;10.994;2023-01-10T05:17:24;98348.88;;;3.57;100.00
29907;BME280;16776;50.958;10.994;2023-01-10T05:19:51;98362.41;;;3.59;100.00
29907;BME280;16776;50.958;10.994;2023-01-10T05:22:20;98360.72;;;3.61;100.00
29907;BME280;16776;50.958;10.994;2023-01-10T05:24:46;98365.84;;;3.58;100.00
29907;BME280;16776;50.958;10.994;2023-01-10T05:27:17;98372.63;;;3.56;100.00
29907;BME280;16776;50.958;10.994;2023-01-10T05:29:43;98382.81;;;3.54;100.00
29907;BME280;16776;50.958;10.994;2023-01-10T05:32:10;98380.28;;;3.51;100.00
29907;BME280;16776;50.958;10.994;2023-01-10T05:34:38;98383.69;;;3.50;100.00
29907;BME280;16776;50.958;10.994;2023-01-10T05:37:04;98390.47;;;3.47;100.00
29907;BME280;16776;50.958;10.994;2023-01-10T05:39:34;98395.53;;;3.45;100.00
29907;BME280;16776;50.958;10.994;2023-01-10T05:42:00;98395.56;;;3.43;100.00
29907;BME280;16776;50.958;10.994;2023-01-10T05:44:30;98404.06;;;3.42;100.00
29907;BME280;16776;50.958;10.994;2023-01-10T05:46:57;98415.06;;;3.41;100.00
29907;BME280;16776;50.958;10.994;2023-01-10T05:49:23;98416.75;;;3.39;100.00
29907;BME280;16776;50.958;10.994;2023-01-10T05:51:51;98420.16;;;3.40;100.00
29907;BME280;16776;50.958;10.994;2023-01-10T05:54:20;98433.75;;;3.43;100.00
29907;BME280;16776;50.958;10.994;2023-01-10T05:56:46;98436.25;;;3.60;100.00
29907;BME280;16776;50.958;10.994;2023-01-10T05:59:13;98436.19;;;3.88;100.00
29907;BME280;16776;50.958;10.994;2023-01-10T06:01:45;98449.66;;;4.23;100.00
29907;BME280;16776;50.958;10.994;2023-01-10T06:04:12;98449.56;;;4.44;100.00
29907;BME280;16776;50.958;10.994;2023-01-10T06:06:38;98451.19;;;4.57;100.00
29907;BME280;16776;50.958;10.994;2023-01-10T06:09:11;98456.25;;;4.65;100.00
29907;BME280;16776;50.958;10.994;2023-01-10T06:11:39;98459.66;;;4.64;100.00
29907;BME280;16776;50.958;10.994;2023-01-10T06:14:06;98460.53;;;4.60;100.00
29907;BME280;16776;50.958;10.994;2023-01-10T06:16:46;98472.47;;;4.52;100.00
29907;BME280;16776;50.958;10.994;2023-01-10T06:19:13;98473.34;;;4.43;100.00
29907;BME280;16776;50.958;10.994;2023-01-10T06:21:39;98482.72;;;4.35;100.00
29907;BME280;16776;50.958;10.994;2023-01-10T06:24:07;98485.34;;;4.26;100.00
29907;BME280;16776;50.958;10.994;2023-01-10T06:26:41;98494.66;;;4.22;100.00
29907;BME280;16776;50.958;10.994;2023-01-10T06:29:09;98494.75;;;4.09;100.00
29907;BME280;16776;50.958;10.994;2023-01-10T06:31:44;98506.63;;;4.07;100.00
29907;BME280;16776;50.958;10.994;2023-01-10T06:34:11;98519.41;;;3.93;100.00
29907;BME280;16776;50.958;10.994;2023-01-10T06:36:38;98521.09;;;3.87;100.00
29907;BME280;16776;50.958;10.994;2023-01-10T06:39:04;98527.06;;;3.81;100.00
29907;BME280;16776;50.958;10.994;2023-01-10T06:41:31;98534.72;;;3.75;100.00
29907;BME280;16776;50.958;10.994;2023-01-10T06:44:02;98540.66;;;3.74;100.00
29907;BME280;16776;50.958;10.994;2023-01-10T06:46:29;98554.22;;;3.67;100.00
29907;BME280;16776;50.958;10.994;2023-01-10T06:48:55;98567.84;;;3.63;100.00
29907;BME280;16776;50.958;10.994;2023-01-10T06:51:22;98575.44;;;3.60;100.00
29907;BME280;16776;50.958;10.994;2023-01-10T06:53:48;98576.31;;;3.56;100.00
29907;BME280;16776;50.958;10.994;2023-01-10T06:56:23;98585.66;;;3.55;100.00
29907;BME280;16776;50.958;10.994;2023-01-10T06:58:54;98589.00;;;3.45;100.00
29907;BME280;16776;50.958;10.994;2023-01-10T07:01:21;98590.72;;;3.43;100.00
29907;BME280;16776;50.958;10.994;2023-01-10T07:03:48;98589.84;;;3.35;100.00
29907;BME280;16776;50.958;10.994;2023-01-10T07:06:15;98590.72;;;3.31;100.00
29907;BME280;16776;50.958;10.994;2023-01-10T07:08:43;98595.75;;;3.29;100.00
29907;BME280;16776;50.958;10.994;2023-01-10T07:11:12;98603.41;;;3.25;100.00
29907;BME280;16776;50.958;10.994;2023-01-10T07:13:39;98602.53;;;3.21;100.00
29907;BME280;16776;50.958;10.994;2023-01-10T07:16:07;98607.59;;;3.20;100.00
29907;BME280;16776;50.958;10.994;2023-01-10T07:18:39;98605.91;;;3.14;100.00
29907;BME280;16776;50.958;10.994;2023-01-10T07:21:07;98621.16;;;3.14;100.00
29907;BME280;16776;50.958;10.994;2023-01-10T07:23:35;98622.00;;;3.10;100.00
29907;BME280;16776;50.958;10.994;2023-01-10T07:26:03;98629.63;;;3.09;100.00
29907;BME280;16776;50.958;10.994;2023-01-10T07:28:30;98636.41;;;3.05;100.00
29907;BME280;16776;50.958;10.994;2023-01-10T07:30:58;98641.47;;;3.02;100.00
29907;BME280;16776;50.958;10.994;2023-01-10T07:33:25;98638.91;;;3.00;100.00
29907;BME280;16776;50.958;10.994;2023-01-10T07:35:53;98649.94;;;3.01;100.00
29907;BME280;16776;50.958;10.994;2023-01-10T07:38:23;98657.59;;;2.98;100.00
29907;BME280;16776;50.958;10.994;2023-01-10T07:40:50;98665.22;;;2.98;100.00
29907;BME280;16776;50.958;10.994;2023-01-10T07:43:17;98671.16;;;2.97;100.00
29907;BME280;16776;50.958;10.994;2023-01-10T07:45:43;98673.69;;;2.97;100.00
29907;BME280;16776;50.958;10.994;2023-01-10T07:48:12;98671.16;;;3.00;100.00
29907;BME280;16776;50.958;10.994;2023-01-10T07:50:39;98670.28;;;2.96;100.00
29907;BME280;16776;50.958;10.994;2023-01-10T07:53:08;98672.84;;;2.98;100.00
29907;BME280;16776;50.958;10.994;2023-01-10T07:55:35;98678.78;;;2.97;100.00
29907;BME280;16776;50.958;10.994;2023-01-10T07:58:04;98687.25;;;2.96;100.00
29907;BME280;16776;50.958;10.994;2023-01-10T08:00:32;98690.63;;;2.96;100.00
29907;BME280;16776;50.958;10.994;2023-01-10T08:02:58;98677.00;;;2.84;100.00
29907;BME280;16776;50.958;10.994;2023-01-10T08:05:26;98695.75;;;2.98;100.00
29907;BME280;16776;50.958;10.994;2023-01-10T08:07:52;98696.63;;;3.00;100.00
29907;BME280;16776;50.958;10.994;2023-01-10T08:10:21;98695.75;;;3.02;100.00
29907;BME280;16776;50.958;10.994;2023-01-10T08:12:50;98700.84;;;3.02;100.00
29907;BME280;16776;50.958;10.994;2023-01-10T08:15:16;98706.81;;;3.04;100.00
29907;BME280;16776;50.958;10.994;2023-01-10T08:17:46;98703.41;;;3.07;100.00
29907;BME280;16776;50.958;10.994;2023-01-10T08:20:12;98696.63;;;3.09;100.00
29907;BME280;16776;50.958;10.994;2023-01-10T08:22:39;98705.97;;;3.12;100.00
29907;BME280;16776;50.958;10.994;2023-01-10T08:25:06;98707.69;;;3.14;100.00
29907;BME280;16776;50.958;10.994;2023-01-10T08:27:34;98704.31;;;3.18;100.00
29907;BME280;16776;50.958;10.994;2023-01-10T08:30:01;98707.72;;;3.19;100.00
29907;BME280;16776;50.958;10.994;2023-01-10T08:32:28;98721.31;;;3.24;100.00
29907;BME280;16776;50.958;10.994;2023-01-10T08:34:57;98723.91;;;3.33;100.00
29907;BME280;16776;50.958;10.994;2023-01-10T08:37:23;98724.81;;;3.47;100.00
29907;BME280;16776;50.958;10.994;2023-01-10T08:39:50;98738.44;;;3.67;100.00
29907;BME280;16776;50.958;10.994;2023-01-10T08:42:20;98741.91;;;3.88;100.00
29907;BME280;16776;50.958;10.994;2023-01-10T08:44:49;98747.03;;;4.13;100.00
29907;BME280;16776;50.958;10.994;2023-01-10T08:47:16;98735.13;;;4.29;100.00
29907;BME280;16776;50.958;10.994;2023-01-10T08:49:42;98734.28;;;4.44;100.00
29907;BME280;16776;50.958;10.994;2023-01-10T08:52:11;98745.34;;;4.53;100.00
29907;BME280;16776;50.958;10.994;2023-01-10T08:54:38;98745.31;;;4.62;100.00
29907;BME280;16776;50.958;10.994;2023-01-10T08:57:04;98752.97;;;4.76;100.00
29907;BME280;16776;50.958;10.994;2023-01-10T08:59:33;98754.63;;;4.95;100.00
29907;BME280;16776;50.958;10.994;2023-01-10T09:02:04;98755.44;;;5.19;100.00
29907;BME280;16776;50.958;10.994;2023-01-10T09:04:37;98764.75;;;5.36;100.00
29907;BME280;16776;50.958;10.994;2023-01-10T09:07:03;98768.94;;;5.54;100.00
29907;BME280;16776;50.958;10.994;2023-01-10T09:09:30;98773.09;;;5.70;100.00
29907;BME280;16776;50.958;10.994;2023-01-10T09:11:56;98779.00;;;5.86;100.00
29907;BME280;16776;50.958;10.994;2023-01-10T09:14:23;98782.34;;;5.99;100.00
29907;BME280;16776;50.958;10.994;2023-01-10T09:16:50;98778.00;;;6.08;100.00
29907;BME280;16776;50.958;10.994;2023-01-10T09:19:18;98779.66;;;6.14;100.00
29907;BME280;16776;50.958;10.994;2023-01-10T09:21:44;98778.00;;;6.13;100.00
29907;BME280;16776;50.958;10.994;2023-01-10T09:24:11;98780.56;;;6.10;100.00
29907;BME280;16776;50.958;10.994;2023-01-10T09:26:38;98773.78;;;6.06;100.00
29907;BME280;16776;50.958;10.994;2023-01-10T09:29:06;98779.78;;;5.99;100.00
29907;BME280;16776;50.958;10.994;2023-01-10T09:31:33;98776.41;;;5.91;100.00
29907;BME280;16776;50.958;10.994;2023-01-10T09:34:01;98792.63;;;5.83;100.00
29907;BME280;16776;50.958;10.994;2023-01-10T09:36:28;98792.66;;;5.79;100.00
29907;BME280;16776;50.958;10.994;2023-01-10T09:38:55;98804.63;;;5.71;100.00
29907;BME280;16776;50.958;10.994;2023-01-10T09:44:18;98776.59;;;5.51;100.00
29907;BME280;16776;50.958;10.994;2023-01-10T09:46:52;98780.84;;;5.55;100.00
29907;BME280;16776;50.958;10.994;2023-01-10T09:49:30;98763.03;;;5.41;100.00
29907;BME280;16776;50.958;10.994;2023-01-10T09:52:15;98779.19;;;5.43;100.00
29907;BME280;16776;50.958;10.994;2023-01-10T09:54:47;98786.03;;;5.43;100.00
29907;BME280;16776;50.958;10.994;2023-01-10T09:57:18;98774.06;;;5.45;100.00
29907;BME280;16776;50.958;10.994;2023-01-10T09:59:49;98768.03;;;5.63;100.00
29907;BME280;16776;50.958;10.994;2023-01-10T10:02:24;98756.97;;;5.65;100.00
29907;BME280;16776;50.958;10.994;2023-01-10T10:05:09;98780.72;;;5.87;100.00
29907;BME280;16776;50.958;10.994;2023-01-10T10:07:41;98784.88;;;6.00;100.00
29907;BME280;16776;50.958;10.994;2023-01-10T10:10:13;98787.34;;;6.17;100.00
29907;BME280;16776;50.958;10.994;2023-01-10T10:12:46;98791.47;;;6.36;100.00
29907;BME280;16776;50.958;10.994;2023-01-10T10:15:22;98786.19;;;6.57;100.00
29907;BME280;16776;50.958;10.994;2023-01-10T10:17:56;98790.34;;;6.74;100.00
29907;BME280;16776;50.958;10.994;2023-01-10T10:20:37;98791.09;;;6.85;100.00
29907;BME280;16776;50.958;10.994;2023-01-10T10:23:30;98792.72;;;6.92;100.00
29907;BME280;16776;50.958;10.994;2023-01-10T10:26:05;98799.63;;;6.85;100.00
29907;BME280;16776;50.958;10.994;2023-01-10T10:31:33;98805.69;;;6.77;100.00
29907;BME280;16776;50.958;10.994;2023-01-10T10:34:12;98807.41;;;6.70;100.00
29907;BME280;16776;50.958;10.994;2023-01-10T10:36:44;98805.75;;;6.64;100.00
29907;BME280;16776;50.958;10.994;2023-01-10T10:39:15;98798.94;;;6.60;100.00
29907;BME280;16776;50.958;10.994;2023-01-10T10:41:44;98799.84;;;6.58;100.00
29907;BME280;16776;50.958;10.994;2023-01-10T10:44:29;98797.19;;;6.65;100.00
29907;BME280;16776;50.958;10.994;2023-01-10T10:46:58;98791.28;;;6.60;100.00
29907;BME280;16776;50.958;10.994;2023-01-10T10:49:34;98786.94;;;6.67;100.00
29907;BME280;16776;50.958;10.994;2023-01-10T10:52:07;98797.22;;;6.62;100.00
29907;BME280;16776;50.958;10.994;2023-01-10T10:54:38;98795.53;;;6.61;100.00
29907;BME280;16776;50.958;10.994;2023-01-10T10:57:05;98795.56;;;6.58;100.00
29907;BME280;16776;50.958;10.994;2023-01-10T10:59:35;98789.56;;;6.59;100.00
29907;BME280;16776;50.958;10.994;2023-01-10T11:02:02;98790.41;;;6.61;100.00
29907;BME280;16776;50.958;10.994;2023-01-10T11:04:30;98801.44;;;6.70;100.00
29907;BME280;16776;50.958;10.994;2023-01-10T11:06:59;98791.19;;;6.77;100.00
29907;BME280;16776;50.958;10.994;2023-01-10T11:09:26;98796.19;;;6.88;100.00
29907;BME280;16776;50.958;10.994;2023-01-10T11:11:57;98796.91;;;7.00;100.00
29907;BME280;16776;50.958;10.994;2023-01-10T11:14:42;98800.16;;;7.19;100.00
29907;BME280;16776;50.958;10.994;2023-01-10T11:17:21;98796.59;;;7.34;100.00
29907;BME280;16776;50.958;10.994;2023-01-10T11:19:58;98801.56;;;7.44;100.00
29907;BME280;16776;50.958;10.994;2023-01-10T11:22:26;98799.00;;;7.48;100.00
29907;BME280;16776;50.958;10.994;2023-01-10T11:24:55;98803.22;;;7.49;100.00
29907;BME280;16776;50.958;10.994;2023-01-10T11:27:27;98802.34;;;7.51;100.00
29907;BME280;16776;50.958;10.994;2023-01-10T11:29:57;98804.97;;;7.48;100.00
29907;BME280;16776;50.958;10.994;2023-01-10T11:32:31;98804.13;;;7.44;100.00
29907;BME280;16776;50.958;10.994;2023-01-10T11:35:00;98802.50;;;7.36;100.00
29907;BME280;16776;50.958;10.994;2023-01-10T11:37:29;98803.44;;;7.30;100.00
29907;BME280;16776;50.958;10.994;2023-01-10T11:40:16;98807.69;;;7.31;100.00
29907;BME280;16776;50.958;10.994;2023-01-10T11:42:45;98814.66;;;7.20;100.00
29907;BME280;16776;50.958;10.994;2023-01-10T11:45:28;98824.84;;;7.26;100.00
29907;BME280;16776;50.958;10.994;2023-01-10T11:48:01;98820.63;;;7.21;100.00
29907;BME280;16776;50.958;10.994;2023-01-10T11:50:32;98817.28;;;7.11;100.00
29907;BME280;16776;50.958;10.994;2023-01-10T11:53:03;98824.09;;;7.15;100.00
29907;BME280;16776;50.958;10.994;2023-01-10T11:55:32;98821.59;;;7.09;100.00
29907;BME280;16776;50.958;10.994;2023-01-10T11:58:04;98832.72;;;7.08;100.00
29907;BME280;16776;50.958;10.994;2023-01-10T12:00:34;98832.78;;;6.97;99.87
29907;BME280;16776;50.958;10.994;2023-01-10T12:03:13;98824.34;;;6.88;100.00
29907;BME280;16776;50.958;10.994;2023-01-10T12:05:40;98831.22;;;6.80;100.00
29907;BME280;16776;50.958;10.994;2023-01-10T12:08:23;98828.69;;;6.80;100.00
29907;BME280;16776;50.958;10.994;2023-01-10T12:10:57;98839.81;;;6.71;100.00
29907;BME280;16776;50.958;10.994;2023-01-10T12:13:28;98842.44;;;6.60;100.00
29907;BME280;16776;50.958;10.994;2023-01-10T12:16:18;98838.19;;;6.59;100.00
29907;BME280;16776;50.958;10.994;2023-01-10T12:18:47;98841.72;;;6.45;100.00
29907;BME280;16776;50.958;10.994;2023-01-10T12:21:16;98843.44;;;6.43;100.00
29907;BME280;16776;50.958;10.994;2023-01-10T12:23:46;98840.91;;;6.38;100.00
29907;BME280;16776;50.958;10.994;2023-01-10T12:26:15;98837.53;;;6.30;100.00
29907;BME280;16776;50.958;10.994;2023-01-10T12:28:49;98838.41;;;6.31;99.98
29907;BME280;16776;50.958;10.994;2023-01-10T12:31:16;98833.34;;;6.20;100.00
29907;BME280;16776;50.958;10.994;2023-01-10T12:33:46;98841.03;;;6.17;100.00
29907;BME280;16776;50.958;10.994;2023-01-10T12:36:21;98841.88;;;6.16;100.00
29907;BME280;16776;50.958;10.994;2023-01-10T12:38:58;98846.19;;;6.12;100.00
29907;BME280;16776;50.958;10.994;2023-01-10T12:41:37;98843.63;;;6.09;100.00
29907;BME280;16776;50.958;10.994;2023-01-10T12:44:26;98840.25;;;6.06;100.00
29907;BME280;16776;50.958;10.994;2023-01-10T12:46:56;98841.09;;;6.02;100.00
29907;BME280;16776;50.958;10.994;2023-01-10T12:49:27;98842.84;;;6.00;100.00
29907;BME280;16776;50.958;10.994;2023-01-10T12:51:58;98838.59;;;5.91;100.00
29907;BME280;16776;50.958;10.994;2023-01-10T12:54:28;98847.13;;;5.93;100.00
29907;BME280;16776;50.958;10.994;2023-01-10T12:56:57;98854.78;;;5.89;99.82
29907;BME280;16776;50.958;10.994;2023-01-10T12:59:31;98861.63;;;5.87;100.00
29907;BME280;16776;50.958;10.994;2023-01-10T13:02:05;98854.84;;;5.81;100.00
29907;BME280;16776;50.958;10.994;2023-01-10T13:04:36;98858.25;;;5.78;100.00
29907;BME280;16776;50.958;10.994;2023-01-10T13:07:04;98859.13;;;5.74;99.80
29907;BME280;16776;50.958;10.994;2023-01-10T13:09:31;98860.84;;;5.74;100.00
29907;BME280;16776;50.958;10.994;2023-01-10T13:12:01;98853.13;;;5.75;100.00
29907;BME280;16776;50.958;10.994;2023-01-10T13:14:33;98856.59;;;5.74;100.00
29907;BME280;16776;50.958;10.994;2023-01-10T13:17:09;98845.47;;;5.75;100.00
29907;BME280;16776;50.958;10.994;2023-01-10T13:19:42;98844.66;;;5.70;100.00
29907;BME280;16776;50.958;10.994;2023-01-10T13:22:18;98842.06;;;5.76;100.00